Montague, TX (76251)

4:20 PM CDT on April 27, 2015 (GMT -0500)
Bowie | | Change Station
CLOSE
Current Station
Airport
Location: Bowie,
Elevation: 1102 ft
Nearby Weather Stations

Elev 1102 ft 33.60 °N, 97.77 °W | Updated 25 minutes ago

Rain
Rain
57 °F
Feels Like 57 °F
N
6
Wind Variable Wind from NE

Today
High -- | Low -- °F
--% Chance of Precip.
Yesterday
High -- | Low -- °F
Precip. -- in
6:46 AM 8:10 PM
Waxing Gibbous, 68% visible
Pressure 29.80 in
Visibility 3.0 miles
Clouds Scattered Clouds 3000 ft
Mostly Cloudy 3700 ft
Overcast 4900 ft
Dew Point 57 °F
Humidity 97%
Rainfall 0.30 in
Snow Depth Not available.
UV 2 out of 12
Pollen 1.20 out of 12
Air Quality Not available.
Flu Activity Local Activity
METAR K0F2 272055Z AUTO 04005KT 3SM RA SCT030 BKN037 OVC049 14/14 A2980 RMK AO2 LTG DSNT NE AND SE P0009 60019 T01410137

More Conditions Fewer Conditions

Pressure 29.80 in
Visibility 3.0 miles
Clouds Scattered Clouds 3000 ft
Mostly Cloudy 3700 ft
Overcast 4900 ft
Dew Point 57 °F
Humidity 97%
Rainfall 0.30 in
Snow Depth Not available.
UV 2 out of 12
Pollen 1.20 out of 12
Air Quality Not available.
Flu Activity Local Activity
METAR K0F2 272055Z AUTO 04005KT 3SM RA SCT030 BKN037 OVC049 14/14 A2980 RMK AO2 LTG DSNT NE AND SE P0009 60019 T01410137

More Conditions Fewer Conditions

10-Day Weather Forecast

Almanac

Astronomy

Apr. 27, 2015 Rise Set
Actual Time
Civil Twilight
Nautical Twilight
Astronomical Twilight
Moon
Length of Visible Light
Length of Day
Tomorrow will be .
, % of the Moon is Illuminated

Today's Extremes

State Highs State Lows

Community

WunderPhotos

Upload Photos

1,817,432 photos uploaded!

WunderBlogs® & News

Nearby

Air Quality

  Air Quality AQ Index Pollutant
Not available.

Snow Depth

Station Depth Elevation

Earthquake Activity

City Distance Mag. Time & Date
Minimum magnitude displayed is 2.5.

Coastal Water Temperatures

Place Temperature

Stations

Nearby Weather Stations

Station Location Temp. Windchill Dew Point Humidity Wind Precip. Elev Updated Type